Canadian Empress — VX6095 — position and weather

sailwx.info

Track history (hours):
 
Tides and Currents Weather Stations Pressure Air Temp Water Temp Dewpoint Dewpoint Depression Visibility Wind Speed Wind Dir Waves Ship Positions

Canadian Empress

Last reported at 2017-Oct-09 19:18 UTC. Time now 2017-Nov-20 14:03 UTC.
Position N 45°15' W 073°58'.
Warning: this ship's position is 41 days out of date.

Length 32 m.

Type: Passenger vessel. MMSI: 314954012.

Date/timePositionNaut miles runAvg speedWind from/ knotsBaromVisibWave heightAir tempDewpointWater temp
2017-Oct-09 19:18N 45°15' W 073°58'3 7.5
2017-Oct-09 18:56N 45°18' W 073°56'1 1.4
2017-Oct-09 18:28N 45°18' W 073°55'1 1.5
2017-Oct-09 17:59N 45°19' W 073°55'0 0.5
2017-Oct-09 17:30N 45°19' W 073°55'0 0.0
2017-Oct-09 17:00N 45°19' W 073°55'3 6.2
2017-Oct-09 16:30N 45°21' W 073°51'4 8.8
2017-Oct-09 16:00N 45°24' W 073°47'4 8.1
2017-Oct-09 15:30N 45°26' W 073°42'0 0.0
2017-Oct-09 15:00N 45°26' W 073°42'0 0.0
2017-Oct-09 14:30N 45°26' W 073°42'0 0.0
2017-Oct-09 14:00N 45°26' W 073°42'0 0.0
2017-Oct-09 13:30N 45°26' W 073°42'0 0.0
2017-Oct-09 13:00N 45°26' W 073°42'0 0.0
2017-Oct-09 12:30N 45°26' W 073°42'0 0.0
2017-Oct-09 12:00N 45°26' W 073°42'0 0.0
2017-Oct-09 11:30N 45°26' W 073°42'0 0.0
2017-Oct-09 11:00N 45°26' W 073°42'0 0.0
2017-Oct-09 10:30N 45°26' W 073°42'0 0.0
2017-Oct-09 10:00N 45°26' W 073°42'0 0.0
2017-Oct-09 09:30N 45°26' W 073°42'0 0.0
2017-Oct-09 09:00N 45°26' W 073°42'0 0.0
2017-Oct-09 08:30N 45°26' W 073°42'0 0.0
2017-Oct-09 08:00N 45°26' W 073°42'0 0.0
2017-Oct-09 07:30N 45°26' W 073°42'0 0.0
2017-Oct-09 07:00N 45°26' W 073°42'0 0.0
2017-Oct-09 06:30N 45°26' W 073°42'0 0.0
2017-Oct-09 06:00N 45°26' W 073°42'0 0.0
2017-Oct-09 05:30N 45°26' W 073°42'0 0.0
2017-Oct-09 05:00N 45°26' W 073°42'0 0.0
2017-Oct-09 04:30N 45°26' W 073°42'0 0.0
2017-Oct-09 03:59N 45°26' W 073°42'0 0.0
2017-Oct-09 03:30N 45°26' W 073°42'0 0.0
2017-Oct-09 03:00N 45°26' W 073°42'0 0.0
2017-Oct-09 02:30N 45°26' W 073°42'0 0.0
2017-Oct-09 02:00N 45°26' W 073°42'0 0.0
2017-Oct-09 01:30N 45°26' W 073°42'0 0.0
2017-Oct-09 01:00N 45°26' W 073°42'0 0.0
2017-Oct-09 00:30N 45°26' W 073°42'0 0.0
2017-Oct-09 00:00N 45°26' W 073°42'0 0.0
2017-Oct-08 23:30N 45°26' W 073°42'0 0.0
2017-Oct-08 23:00N 45°26' W 073°42'0 0.0
2017-Oct-08 22:30N 45°26' W 073°42'0 0.0
2017-Oct-08 22:00N 45°26' W 073°42'0 0.0
2017-Oct-08 21:30N 45°26' W 073°42'0 0.0
2017-Oct-08 21:00N 45°26' W 073°42'0 0.0
2017-Oct-08 20:30N 45°26' W 073°42'0 0.0
2017-Oct-08 20:00N 45°26' W 073°42'0 0.0
2017-Oct-08 19:30N 45°26' W 073°42'0 0.0
2017-Oct-08 19:00N 45°26' W 073°42'0 0.0
2017-Oct-08 18:30N 45°26' W 073°42'0 0.0
2017-Oct-08 18:00N 45°26' W 073°42'0 0.0
2017-Oct-08 17:30N 45°26' W 073°42'2 4.5
2017-Oct-08 17:00N 45°25' W 073°45'5 9.4
2017-Oct-08 16:30N 45°22' W 073°50'5 9.1
2017-Oct-08 15:58N 45°19' W 073°55'1 1.5
2017-Oct-08 15:30N 45°18' W 073°56'0 0.3
2017-Oct-08 15:00N 45°18' W 073°56'0 0.0
2017-Oct-08 14:30N 45°18' W 073°56'0 0.6
2017-Oct-08 14:00N 45°18' W 073°56'0 0.0
2017-Oct-08 13:30N 45°18' W 073°56'0 0.6
2017-Oct-08 13:00N 45°18' W 073°56'2 3.0
2017-Oct-08 12:27N 45°16' W 073°57'1 3.1
2017-Oct-08 12:00N 45°15' W 073°58'3 5.2
2017-Oct-08 11:30N 45°14' W 074°01'  
2017-Oct-02 15:43N 45°18' W 073°56'0 0.3
2017-Oct-02 15:20N 45°18' W 073°56'1 2.4
2017-Oct-02 14:59N 45°19' W 073°55'0 0.0
2017-Oct-02 14:26N 45°19' W 073°55'3 6.6
2017-Oct-02 14:00N 45°21' W 073°52'4 8.7
2017-Oct-02 13:29N 45°24' W 073°47'4 8.4
2017-Oct-02 13:00N 45°26' W 073°42'0 0.1
2017-Oct-02 05:56N 45°26' W 073°42'2 4.6
2017-Oct-02 05:30N 45°25' W 073°44'1 2.9
2017-Oct-02 05:00N 45°25' W 073°42'3 5.7
2017-Oct-02 04:30N 45°24' W 073°38'  
Track history (hours):
 
Tides and Currents Weather Stations Pressure Air Temp Water Temp Dewpoint Dewpoint Depression Visibility Wind Speed Wind Dir Waves Ship Positions

Canadian Empress

Last reported at 2017-Oct-09 19:18 UTC. Time now 2017-Nov-20 14:03 UTC.
Position N 45°15' W 073°58'.
Warning: this ship's position is 41 days out of date.

Length 32 m.

Type: Passenger vessel. MMSI: 314954012.

Date/timePositionNaut miles runAvg speedWind from/ knotsBaromVisibWave heightAir tempDewpointWater temp
2017-Oct-09 19:18N 45°15' W 073°58'3 7.5
2017-Oct-09 18:56N 45°18' W 073°56'1 1.4
2017-Oct-09 18:28N 45°18' W 073°55'1 1.5
2017-Oct-09 17:59N 45°19' W 073°55'0 0.5
2017-Oct-09 17:30N 45°19' W 073°55'0 0.0
2017-Oct-09 17:00N 45°19' W 073°55'3 6.2
2017-Oct-09 16:30N 45°21' W 073°51'4 8.8
2017-Oct-09 16:00N 45°24' W 073°47'4 8.1
2017-Oct-09 15:30N 45°26' W 073°42'0 0.0
2017-Oct-09 15:00N 45°26' W 073°42'0 0.0
2017-Oct-09 14:30N 45°26' W 073°42'0 0.0
2017-Oct-09 14:00N 45°26' W 073°42'0 0.0
2017-Oct-09 13:30N 45°26' W 073°42'0 0.0
2017-Oct-09 13:00N 45°26' W 073°42'0 0.0
2017-Oct-09 12:30N 45°26' W 073°42'0 0.0
2017-Oct-09 12:00N 45°26' W 073°42'0 0.0
2017-Oct-09 11:30N 45°26' W 073°42'0 0.0
2017-Oct-09 11:00N 45°26' W 073°42'0 0.0
2017-Oct-09 10:30N 45°26' W 073°42'0 0.0
2017-Oct-09 10:00N 45°26' W 073°42'0 0.0
2017-Oct-09 09:30N 45°26' W 073°42'0 0.0
2017-Oct-09 09:00N 45°26' W 073°42'0 0.0
2017-Oct-09 08:30N 45°26' W 073°42'0 0.0
2017-Oct-09 08:00N 45°26' W 073°42'0 0.0
2017-Oct-09 07:30N 45°26' W 073°42'0 0.0
2017-Oct-09 07:00N 45°26' W 073°42'0 0.0
2017-Oct-09 06:30N 45°26' W 073°42'0 0.0
2017-Oct-09 06:00N 45°26' W 073°42'0 0.0
2017-Oct-09 05:30N 45°26' W 073°42'0 0.0
2017-Oct-09 05:00N 45°26' W 073°42'0 0.0
2017-Oct-09 04:30N 45°26' W 073°42'0 0.0
2017-Oct-09 03:59N 45°26' W 073°42'0 0.0
2017-Oct-09 03:30N 45°26' W 073°42'0 0.0
2017-Oct-09 03:00N 45°26' W 073°42'0 0.0
2017-Oct-09 02:30N 45°26' W 073°42'0 0.0
2017-Oct-09 02:00N 45°26' W 073°42'0 0.0
2017-Oct-09 01:30N 45°26' W 073°42'0 0.0
2017-Oct-09 01:00N 45°26' W 073°42'0 0.0
2017-Oct-09 00:30N 45°26' W 073°42'0 0.0
2017-Oct-09 00:00N 45°26' W 073°42'0 0.0
2017-Oct-08 23:30N 45°26' W 073°42'0 0.0
2017-Oct-08 23:00N 45°26' W 073°42'0 0.0
2017-Oct-08 22:30N 45°26' W 073°42'0 0.0
2017-Oct-08 22:00N 45°26' W 073°42'0 0.0
2017-Oct-08 21:30N 45°26' W 073°42'0 0.0
2017-Oct-08 21:00N 45°26' W 073°42'0 0.0
2017-Oct-08 20:30N 45°26' W 073°42'0 0.0
2017-Oct-08 20:00N 45°26' W 073°42'0 0.0
2017-Oct-08 19:30N 45°26' W 073°42'0 0.0
2017-Oct-08 19:00N 45°26' W 073°42'0 0.0
2017-Oct-08 18:30N 45°26' W 073°42'0 0.0
2017-Oct-08 18:00N 45°26' W 073°42'0 0.0
2017-Oct-08 17:30N 45°26' W 073°42'2 4.5
2017-Oct-08 17:00N 45°25' W 073°45'5 9.4
2017-Oct-08 16:30N 45°22' W 073°50'5 9.1
2017-Oct-08 15:58N 45°19' W 073°55'1 1.5
2017-Oct-08 15:30N 45°18' W 073°56'0 0.3
2017-Oct-08 15:00N 45°18' W 073°56'0 0.0
2017-Oct-08 14:30N 45°18' W 073°56'0 0.6
2017-Oct-08 14:00N 45°18' W 073°56'0 0.0
2017-Oct-08 13:30N 45°18' W 073°56'0 0.6
2017-Oct-08 13:00N 45°18' W 073°56'2 3.0
2017-Oct-08 12:27N 45°16' W 073°57'1 3.1
2017-Oct-08 12:00N 45°15' W 073°58'3 5.2
2017-Oct-08 11:30N 45°14' W 074°01'  
2017-Oct-02 15:43N 45°18' W 073°56'0 0.3
2017-Oct-02 15:20N 45°18' W 073°56'1 2.4
2017-Oct-02 14:59N 45°19' W 073°55'0 0.0
2017-Oct-02 14:26N 45°19' W 073°55'3 6.6
2017-Oct-02 14:00N 45°21' W 073°52'4 8.7
2017-Oct-02 13:29N 45°24' W 073°47'4 8.4
2017-Oct-02 13:00N 45°26' W 073°42'0 0.1
2017-Oct-02 05:56N 45°26' W 073°42'2 4.6
2017-Oct-02 05:30N 45°25' W 073°44'1 2.9
2017-Oct-02 05:00N 45°25' W 073°42'3 5.7
2017-Oct-02 04:30N 45°24' W 073°38'  

Dump ship's entire track history